sensor_id;sensor_type;location;lat;lon;timestamp;P1;durP1;ratioP1;P2;durP2;ratioP2
42096;SDS011;27754;45.414;11.084;2023-05-10T00:00:41;7.25;;;5.60;;
42096;SDS011;27754;45.414;11.084;2023-05-10T00:03:08;7.88;;;6.10;;
42096;SDS011;27754;45.414;11.084;2023-05-10T00:05:35;9.10;;;6.32;;
42096;SDS011;27754;45.414;11.084;2023-05-10T00:08:02;6.07;;;4.72;;
42096;SDS011;27754;45.414;11.084;2023-05-10T00:10:29;8.45;;;5.95;;
42096;SDS011;27754;45.414;11.084;2023-05-10T00:12:56;7.95;;;5.28;;
42096;SDS011;27754;45.414;11.084;2023-05-10T00:15:23;7.90;;;5.13;;
42096;SDS011;27754;45.414;11.084;2023-05-10T00:17:50;7.65;;;5.00;;
42096;SDS011;27754;45.414;11.084;2023-05-10T00:20:17;6.90;;;4.63;;
42096;SDS011;27754;45.414;11.084;2023-05-10T00:22:44;5.28;;;4.00;;
42096;SDS011;27754;45.414;11.084;2023-05-10T00:25:11;6.20;;;3.85;;
42096;SDS011;27754;45.414;11.084;2023-05-10T00:27:38;4.90;;;3.75;;
42096;SDS011;27754;45.414;11.084;2023-05-10T00:30:05;6.00;;;3.42;;
42096;SDS011;27754;45.414;11.084;2023-05-10T00:32:34;7.05;;;3.75;;
42096;SDS011;27754;45.414;11.084;2023-05-10T00:35:00;7.40;;;3.65;;
42096;SDS011;27754;45.414;11.084;2023-05-10T00:37:27;7.47;;;3.22;;
42096;SDS011;27754;45.414;11.084;2023-05-10T00:39:54;8.75;;;3.70;;
42096;SDS011;27754;45.414;11.084;2023-05-10T00:42:21;5.95;;;3.33;;
42096;SDS011;27754;45.414;11.084;2023-05-10T00:44:51;6.35;;;3.00;;
42096;SDS011;27754;45.414;11.084;2023-05-10T00:47:18;4.45;;;2.80;;
42096;SDS011;27754;45.414;11.084;2023-05-10T00:49:45;5.00;;;3.20;;
42096;SDS011;27754;45.414;11.084;2023-05-10T00:52:12;5.43;;;2.67;;
42096;SDS011;27754;45.414;11.084;2023-05-10T00:54:40;7.03;;;3.00;;
42096;SDS011;27754;45.414;11.084;2023-05-10T00:57:07;6.78;;;2.70;;
42096;SDS011;27754;45.414;11.084;2023-05-10T00:59:34;4.40;;;2.33;;
42096;SDS011;27754;45.414;11.084;2023-05-10T01:02:01;5.57;;;3.17;;
42096;SDS011;27754;45.414;11.084;2023-05-10T01:04:28;5.50;;;2.50;;
42096;SDS011;27754;45.414;11.084;2023-05-10T01:06:56;5.38;;;2.70;;
42096;SDS011;27754;45.414;11.084;2023-05-10T01:09:23;4.72;;;2.47;;
42096;SDS011;27754;45.414;11.084;2023-05-10T01:11:52;3.58;;;2.28;;
42096;SDS011;27754;45.414;11.084;2023-05-10T01:14:21;3.72;;;2.10;;
42096;SDS011;27754;45.414;11.084;2023-05-10T01:16:48;5.60;;;2.30;;
42096;SDS011;27754;45.414;11.084;2023-05-10T01:19:23;4.13;;;2.42;;
42096;SDS011;27754;45.414;11.084;2023-05-10T01:24:32;3.25;;;2.15;;
42096;SDS011;27754;45.414;11.084;2023-05-10T01:41:49;7.63;;;2.38;;
42096;SDS011;27754;45.414;11.084;2023-05-10T01:47:26;3.65;;;1.98;;
42096;SDS011;27754;45.414;11.084;2023-05-10T01:50:02;3.70;;;2.40;;
42096;SDS011;27754;45.414;11.084;2023-05-10T01:52:36;4.75;;;2.20;;
42096;SDS011;27754;45.414;11.084;2023-05-10T01:55:13;6.28;;;2.70;;
42096;SDS011;27754;45.414;11.084;2023-05-10T01:57:42;4.90;;;2.45;;
42096;SDS011;27754;45.414;11.084;2023-05-10T02:00:13;3.78;;;2.58;;
42096;SDS011;27754;45.414;11.084;2023-05-10T02:02:44;6.03;;;2.67;;
42096;SDS011;27754;45.414;11.084;2023-05-10T02:05:13;5.53;;;2.35;;
42096;SDS011;27754;45.414;11.084;2023-05-10T02:07:42;6.90;;;2.70;;
42096;SDS011;27754;45.414;11.084;2023-05-10T02:10:10;4.78;;;2.83;;
42096;SDS011;27754;45.414;11.084;2023-05-10T02:12:41;3.92;;;2.75;;
42096;SDS011;27754;45.414;11.084;2023-05-10T02:15:10;6.40;;;2.17;;
42096;SDS011;27754;45.414;11.084;2023-05-10T02:17:41;5.43;;;2.47;;
42096;SDS011;27754;45.414;11.084;2023-05-10T02:20:09;4.82;;;2.58;;
42096;SDS011;27754;45.414;11.084;2023-05-10T02:22:38;6.28;;;2.55;;
42096;SDS011;27754;45.414;11.084;2023-05-10T02:25:06;3.70;;;2.53;;
42096;SDS011;27754;45.414;11.084;2023-05-10T02:27:34;3.40;;;2.45;;
42096;SDS011;27754;45.414;11.084;2023-05-10T02:30:03;5.60;;;2.65;;
42096;SDS011;27754;45.414;11.084;2023-05-10T02:32:32;4.03;;;2.78;;
42096;SDS011;27754;45.414;11.084;2023-05-10T02:35:01;4.22;;;3.00;;
42096;SDS011;27754;45.414;11.084;2023-05-10T02:37:29;4.68;;;3.20;;
42096;SDS011;27754;45.414;11.084;2023-05-10T02:39:56;5.07;;;3.00;;
42096;SDS011;27754;45.414;11.084;2023-05-10T02:42:27;4.07;;;3.22;;
42096;SDS011;27754;45.414;11.084;2023-05-10T02:44:56;4.85;;;2.80;;
42096;SDS011;27754;45.414;11.084;2023-05-10T02:47:27;4.18;;;2.80;;
42096;SDS011;27754;45.414;11.084;2023-05-10T02:49:55;4.50;;;2.85;;
42096;SDS011;27754;45.414;11.084;2023-05-10T02:52:29;4.70;;;3.00;;
42096;SDS011;27754;45.414;11.084;2023-05-10T02:55:03;3.97;;;2.75;;
42096;SDS011;27754;45.414;11.084;2023-05-10T02:57:33;5.40;;;3.10;;
42096;SDS011;27754;45.414;11.084;2023-05-10T03:00:01;3.70;;;2.78;;
42096;SDS011;27754;45.414;11.084;2023-05-10T03:02:29;5.28;;;2.90;;
42096;SDS011;27754;45.414;11.084;2023-05-10T03:04:58;4.13;;;3.10;;
42096;SDS011;27754;45.414;11.084;2023-05-10T03:07:25;5.05;;;2.80;;
42096;SDS011;27754;45.414;11.084;2023-05-10T03:09:52;4.38;;;3.00;;
42096;SDS011;27754;45.414;11.084;2023-05-10T03:12:23;4.55;;;2.90;;
42096;SDS011;27754;45.414;11.084;2023-05-10T03:15:19;4.38;;;3.40;;
42096;SDS011;27754;45.414;11.084;2023-05-10T03:18:07;4.38;;;3.20;;
42096;SDS011;27754;45.414;11.084;2023-05-10T03:20:41;7.28;;;3.38;;
42096;SDS011;27754;45.414;11.084;2023-05-10T03:26:03;7.47;;;3.33;;
42096;SDS011;27754;45.414;11.084;2023-05-10T03:28:32;5.90;;;3.47;;
42096;SDS011;27754;45.414;11.084;2023-05-10T03:31:02;5.25;;;3.35;;
42096;SDS011;27754;45.414;11.084;2023-05-10T03:33:32;5.75;;;3.70;;
42096;SDS011;27754;45.414;11.084;2023-05-10T03:35:59;6.28;;;3.33;;
42096;SDS011;27754;45.414;11.084;2023-05-10T03:38:27;6.15;;;3.53;;
42096;SDS011;27754;45.414;11.084;2023-05-10T03:40:56;6.18;;;3.35;;
42096;SDS011;27754;45.414;11.084;2023-05-10T03:43:23;6.25;;;3.70;;
42096;SDS011;27754;45.414;11.084;2023-05-10T03:45:50;8.23;;;3.53;;
42096;SDS011;27754;45.414;11.084;2023-05-10T03:48:17;6.65;;;3.45;;
42096;SDS011;27754;45.414;11.084;2023-05-10T03:50:44;6.63;;;3.60;;
42096;SDS011;27754;45.414;11.084;2023-05-10T03:53:12;5.25;;;3.00;;
42096;SDS011;27754;45.414;11.084;2023-05-10T03:55:39;4.22;;;2.88;;
42096;SDS011;27754;45.414;11.084;2023-05-10T03:58:06;6.05;;;3.33;;
42096;SDS011;27754;45.414;11.084;2023-05-10T04:00:37;5.57;;;3.10;;
42096;SDS011;27754;45.414;11.084;2023-05-10T04:03:10;5.97;;;3.30;;
42096;SDS011;27754;45.414;11.084;2023-05-10T04:05:37;6.85;;;3.97;;
42096;SDS011;27754;45.414;11.084;2023-05-10T04:08:05;5.45;;;3.00;;
42096;SDS011;27754;45.414;11.084;2023-05-10T04:10:32;5.22;;;2.60;;
42096;SDS011;27754;45.414;11.084;2023-05-10T04:12:59;3.88;;;2.63;;
42096;SDS011;27754;45.414;11.084;2023-05-10T04:15:26;4.25;;;2.97;;
42096;SDS011;27754;45.414;11.084;2023-05-10T04:17:53;4.03;;;2.80;;
42096;SDS011;27754;45.414;11.084;2023-05-10T04:20:20;3.90;;;2.92;;
42096;SDS011;27754;45.414;11.084;2023-05-10T04:22:47;4.25;;;2.83;;
42096;SDS011;27754;45.414;11.084;2023-05-10T04:25:14;4.03;;;3.25;;
42096;SDS011;27754;45.414;11.084;2023-05-10T04:27:41;4.00;;;2.70;;
42096;SDS011;27754;45.414;11.084;2023-05-10T04:30:08;4.28;;;3.17;;
42096;SDS011;27754;45.414;11.084;2023-05-10T04:32:35;5.25;;;3.03;;
42096;SDS011;27754;45.414;11.084;2023-05-10T04:35:02;6.00;;;3.30;;
42096;SDS011;27754;45.414;11.084;2023-05-10T04:37:31;7.53;;;3.08;;
42096;SDS011;27754;45.414;11.084;2023-05-10T04:39:57;4.07;;;3.08;;
42096;SDS011;27754;45.414;11.084;2023-05-10T04:42:26;4.03;;;3.13;;
42096;SDS011;27754;45.414;11.084;2023-05-10T04:44:53;4.10;;;3.08;;
42096;SDS011;27754;45.414;11.084;2023-05-10T04:47:20;4.35;;;3.15;;
42096;SDS011;27754;45.414;11.084;2023-05-10T04:49:47;4.65;;;2.78;;
42096;SDS011;27754;45.414;11.084;2023-05-10T04:52:14;4.10;;;3.10;;
42096;SDS011;27754;45.414;11.084;2023-05-10T04:54:42;4.28;;;3.10;;
42096;SDS011;27754;45.414;11.084;2023-05-10T04:57:09;5.75;;;3.08;;
42096;SDS011;27754;45.414;11.084;2023-05-10T04:59:36;6.22;;;3.30;;
42096;SDS011;27754;45.414;11.084;2023-05-10T05:02:04;7.40;;;3.53;;
42096;SDS011;27754;45.414;11.084;2023-05-10T05:04:31;5.22;;;3.30;;
42096;SDS011;27754;45.414;11.084;2023-05-10T05:06:58;5.60;;;3.70;;
42096;SDS011;27754;45.414;11.084;2023-05-10T05:09:25;6.88;;;4.03;;
42096;SDS011;27754;45.414;11.084;2023-05-10T05:11:52;5.43;;;3.70;;
42096;SDS011;27754;45.414;11.084;2023-05-10T05:14:19;5.13;;;3.05;;
42096;SDS011;27754;45.414;11.084;2023-05-10T05:16:51;5.25;;;3.00;;
42096;SDS011;27754;45.414;11.084;2023-05-10T05:19:18;4.38;;;2.92;;
42096;SDS011;27754;45.414;11.084;2023-05-10T05:21:46;3.63;;;3.10;;
42096;SDS011;27754;45.414;11.084;2023-05-10T05:24:12;5.22;;;3.38;;
42096;SDS011;27754;45.414;11.084;2023-05-10T05:26:39;4.72;;;2.90;;
42096;SDS011;27754;45.414;11.084;2023-05-10T05:29:06;5.13;;;3.22;;
42096;SDS011;27754;45.414;11.084;2023-05-10T05:31:33;6.30;;;3.75;;
42096;SDS011;27754;45.414;11.084;2023-05-10T05:34:00;6.43;;;3.10;;
42096;SDS011;27754;45.414;11.084;2023-05-10T05:36:27;4.38;;;3.22;;
42096;SDS011;27754;45.414;11.084;2023-05-10T05:38:54;4.72;;;3.28;;
42096;SDS011;27754;45.414;11.084;2023-05-10T05:41:21;4.35;;;3.30;;
42096;SDS011;27754;45.414;11.084;2023-05-10T05:43:48;4.45;;;3.20;;
42096;SDS011;27754;45.414;11.084;2023-05-10T05:46:15;3.75;;;3.17;;
42096;SDS011;27754;45.414;11.084;2023-05-10T05:48:42;4.47;;;2.80;;
42096;SDS011;27754;45.414;11.084;2023-05-10T05:51:09;3.67;;;2.70;;
42096;SDS011;27754;45.414;11.084;2023-05-10T05:53:36;4.40;;;2.63;;
42096;SDS011;27754;45.414;11.084;2023-05-10T05:56:03;3.35;;;2.17;;
42096;SDS011;27754;45.414;11.084;2023-05-10T05:58:30;3.45;;;2.28;;
42096;SDS011;27754;45.414;11.084;2023-05-10T06:00:57;5.78;;;2.97;;
42096;SDS011;27754;45.414;11.084;2023-05-10T06:03:24;4.20;;;2.35;;
42096;SDS011;27754;45.414;11.084;2023-05-10T06:05:51;6.55;;;2.75;;
42096;SDS011;27754;45.414;11.084;2023-05-10T06:08:18;4.57;;;3.20;;
42096;SDS011;27754;45.414;11.084;2023-05-10T06:10:45;3.85;;;2.60;;
42096;SDS011;27754;45.414;11.084;2023-05-10T06:13:12;4.95;;;2.50;;
42096;SDS011;27754;45.414;11.084;2023-05-10T06:15:39;4.78;;;2.25;;
42096;SDS011;27754;45.414;11.084;2023-05-10T06:18:06;3.55;;;2.50;;
42096;SDS011;27754;45.414;11.084;2023-05-10T06:20:33;5.28;;;2.63;;
42096;SDS011;27754;45.414;11.084;2023-05-10T06:23:00;5.03;;;3.10;;
42096;SDS011;27754;45.414;11.084;2023-05-10T06:25:27;4.10;;;2.90;;
42096;SDS011;27754;45.414;11.084;2023-05-10T06:27:53;5.18;;;3.35;;
42096;SDS011;27754;45.414;11.084;2023-05-10T06:30:24;6.15;;;3.70;;
42096;SDS011;27754;45.414;11.084;2023-05-10T06:32:55;6.50;;;3.58;;
42096;SDS011;27754;45.414;11.084;2023-05-10T06:35:22;6.60;;;3.88;;
42096;SDS011;27754;45.414;11.084;2023-05-10T06:37:49;4.32;;;2.58;;
42096;SDS011;27754;45.414;11.084;2023-05-10T06:40:17;5.45;;;3.53;;
42096;SDS011;27754;45.414;11.084;2023-05-10T06:42:44;5.53;;;3.50;;
42096;SDS011;27754;45.414;11.084;2023-05-10T06:45:12;4.18;;;2.80;;
42096;SDS011;27754;45.414;11.084;2023-05-10T06:47:41;7.90;;;4.15;;
42096;SDS011;27754;45.414;11.084;2023-05-10T06:50:08;5.55;;;3.65;;
42096;SDS011;27754;45.414;11.084;2023-05-10T06:52:36;4.18;;;3.00;;
42096;SDS011;27754;45.414;11.084;2023-05-10T06:55:03;5.20;;;3.35;;
42096;SDS011;27754;45.414;11.084;2023-05-10T06:57:31;5.93;;;2.92;;
42096;SDS011;27754;45.414;11.084;2023-05-10T06:59:58;5.60;;;3.53;;
42096;SDS011;27754;45.414;11.084;2023-05-10T07:02:25;4.53;;;3.42;;
42096;SDS011;27754;45.414;11.084;2023-05-10T07:04:53;4.80;;;3.03;;
42096;SDS011;27754;45.414;11.084;2023-05-10T07:07:20;4.50;;;3.20;;
42096;SDS011;27754;45.414;11.084;2023-05-10T07:09:47;4.28;;;3.20;;
42096;SDS011;27754;45.414;11.084;2023-05-10T07:12:16;5.93;;;3.50;;
42096;SDS011;27754;45.414;11.084;2023-05-10T07:14:43;5.05;;;2.92;;
42096;SDS011;27754;45.414;11.084;2023-05-10T07:17:10;5.28;;;2.75;;
42096;SDS011;27754;45.414;11.084;2023-05-10T07:19:37;5.05;;;3.53;;
42096;SDS011;27754;45.414;11.084;2023-05-10T07:22:04;5.82;;;3.45;;
42096;SDS011;27754;45.414;11.084;2023-05-10T07:24:32;5.13;;;3.70;;
42096;SDS011;27754;45.414;11.084;2023-05-10T07:26:59;5.10;;;2.90;;
42096;SDS011;27754;45.414;11.084;2023-05-10T07:29:26;6.10;;;3.15;;
42096;SDS011;27754;45.414;11.084;2023-05-10T07:31:53;5.47;;;3.15;;
42096;SDS011;27754;45.414;11.084;2023-05-10T07:34:24;5.72;;;3.55;;
42096;SDS011;27754;45.414;11.084;2023-05-10T07:36:51;6.30;;;2.88;;
42096;SDS011;27754;45.414;11.084;2023-05-10T07:39:19;5.75;;;3.20;;
42096;SDS011;27754;45.414;11.084;2023-05-10T07:41:53;6.88;;;3.70;;
42096;SDS011;27754;45.414;11.084;2023-05-10T07:44:21;5.75;;;3.80;;
42096;SDS011;27754;45.414;11.084;2023-05-10T07:46:48;5.25;;;3.70;;
42096;SDS011;27754;45.414;11.084;2023-05-10T07:49:15;5.15;;;3.58;;
42096;SDS011;27754;45.414;11.084;2023-05-10T07:51:42;8.25;;;4.43;;
42096;SDS011;27754;45.414;11.084;2023-05-10T07:54:09;5.00;;;4.20;;
42096;SDS011;27754;45.414;11.084;2023-05-10T07:56:36;6.13;;;3.25;;
42096;SDS011;27754;45.414;11.084;2023-05-10T07:59:04;5.20;;;3.88;;
42096;SDS011;27754;45.414;11.084;2023-05-10T08:01:33;6.13;;;3.97;;
42096;SDS011;27754;45.414;11.084;2023-05-10T08:04:01;6.07;;;3.63;;
42096;SDS011;27754;45.414;11.084;2023-05-10T08:06:28;5.60;;;3.60;;
42096;SDS011;27754;45.414;11.084;2023-05-10T08:08:56;7.60;;;3.42;;
42096;SDS011;27754;45.414;11.084;2023-05-10T08:11:23;4.22;;;3.38;;
42096;SDS011;27754;45.414;11.084;2023-05-10T08:13:51;6.72;;;3.08;;
42096;SDS011;27754;45.414;11.084;2023-05-10T08:16:18;6.15;;;3.10;;
42096;SDS011;27754;45.414;11.084;2023-05-10T08:18:45;5.07;;;2.90;;
42096;SDS011;27754;45.414;11.084;2023-05-10T08:21:13;8.20;;;3.15;;
42096;SDS011;27754;45.414;11.084;2023-05-10T08:23:41;4.80;;;3.00;;
42096;SDS011;27754;45.414;11.084;2023-05-10T08:26:10;5.88;;;3.47;;
42096;SDS011;27754;45.414;11.084;2023-05-10T08:28:37;6.30;;;3.17;;
42096;SDS011;27754;45.414;11.084;2023-05-10T08:31:04;6.18;;;3.63;;
42096;SDS011;27754;45.414;11.084;2023-05-10T08:33:32;4.70;;;3.20;;
42096;SDS011;27754;45.414;11.084;2023-05-10T08:35:59;3.85;;;2.95;;
42096;SDS011;27754;45.414;11.084;2023-05-10T08:38:26;5.20;;;3.25;;
42096;SDS011;27754;45.414;11.084;2023-05-10T08:40:53;5.13;;;3.05;;
42096;SDS011;27754;45.414;11.084;2023-05-10T08:43:28;3.90;;;2.90;;
42096;SDS011;27754;45.414;11.084;2023-05-10T08:45:56;5.07;;;3.13;;
42096;SDS011;27754;45.414;11.084;2023-05-10T08:48:29;3.95;;;2.45;;
42096;SDS011;27754;45.414;11.084;2023-05-10T08:50:57;5.57;;;2.85;;
42096;SDS011;27754;45.414;11.084;2023-05-10T08:53:27;4.13;;;2.95;;
42096;SDS011;27754;45.414;11.084;2023-05-10T08:55:57;3.67;;;2.75;;
42096;SDS011;27754;45.414;11.084;2023-05-10T08:58:24;5.47;;;2.92;;
42096;SDS011;27754;45.414;11.084;2023-05-10T09:00:51;4.82;;;2.72;;
42096;SDS011;27754;45.414;11.084;2023-05-10T09:03:19;5.45;;;3.30;;
42096;SDS011;27754;45.414;11.084;2023-05-10T09:05:47;4.00;;;2.65;;
42096;SDS011;27754;45.414;11.084;2023-05-10T09:08:15;5.85;;;3.40;;
42096;SDS011;27754;45.414;11.084;2023-05-10T09:10:43;6.13;;;2.70;;
42096;SDS011;27754;45.414;11.084;2023-05-10T09:13:13;7.18;;;2.83;;
42096;SDS011;27754;45.414;11.084;2023-05-10T09:15:42;4.80;;;3.30;;
42096;SDS011;27754;45.414;11.084;2023-05-10T09:18:10;5.18;;;2.60;;
42096;SDS011;27754;45.414;11.084;2023-05-10T09:20:38;5.47;;;2.92;;
42096;SDS011;27754;45.414;11.084;2023-05-10T09:23:05;3.42;;;2.40;;
42096;SDS011;27754;45.414;11.084;2023-05-10T09:25:32;8.45;;;3.20;;
42096;SDS011;27754;45.414;11.084;2023-05-10T09:28:02;6.05;;;3.55;;
42096;SDS011;27754;45.414;11.084;2023-05-10T09:30:32;7.75;;;3.67;;
42096;SDS011;27754;45.414;11.084;2023-05-10T09:32:59;6.00;;;3.00;;
42096;SDS011;27754;45.414;11.084;2023-05-10T09:35:27;5.10;;;2.83;;
42096;SDS011;27754;45.414;11.084;2023-05-10T09:37:57;3.75;;;2.90;;
42096;SDS011;27754;45.414;11.084;2023-05-10T09:40:27;4.57;;;2.67;;
42096;SDS011;27754;45.414;11.084;2023-05-10T09:43:00;5.47;;;2.72;;
42096;SDS011;27754;45.414;11.084;2023-05-10T09:45:31;3.35;;;2.60;;
42096;SDS011;27754;45.414;11.084;2023-05-10T09:48:03;5.53;;;2.80;;
42096;SDS011;27754;45.414;11.084;2023-05-10T09:50:31;5.50;;;2.60;;
42096;SDS011;27754;45.414;11.084;2023-05-10T09:52:58;2.80;;;2.25;;
42096;SDS011;27754;45.414;11.084;2023-05-10T09:58:07;3.85;;;3.00;;
42096;SDS011;27754;45.414;11.084;2023-05-10T10:00:38;4.28;;;2.75;;
42096;SDS011;27754;45.414;11.084;2023-05-10T10:03:12;3.55;;;2.50;;
42096;SDS011;27754;45.414;11.084;2023-05-10T10:05:43;3.33;;;2.40;;
42096;SDS011;27754;45.414;11.084;2023-05-10T10:08:11;4.57;;;2.67;;
42096;SDS011;27754;45.414;11.084;2023-05-10T10:10:39;3.78;;;2.60;;
42096;SDS011;27754;45.414;11.084;2023-05-10T10:13:07;5.40;;;2.63;;
42096;SDS011;27754;45.414;11.084;2023-05-10T10:15:34;3.47;;;2.55;;
42096;SDS011;27754;45.414;11.084;2023-05-10T10:18:01;3.47;;;2.70;;
42096;SDS011;27754;45.414;11.084;2023-05-10T10:20:30;5.22;;;2.90;;
42096;SDS011;27754;45.414;11.084;2023-05-10T10:22:57;4.00;;;2.35;;
42096;SDS011;27754;45.414;11.084;2023-05-10T10:25:24;5.40;;;3.08;;
42096;SDS011;27754;45.414;11.084;2023-05-10T10:27:59;3.95;;;2.20;;
42096;SDS011;27754;45.414;11.084;2023-05-10T10:30:47;4.05;;;2.50;;
42096;SDS011;27754;45.414;11.084;2023-05-10T10:33:36;3.50;;;2.45;;
42096;SDS011;27754;45.414;11.084;2023-05-10T10:36:23;6.95;;;2.47;;
42096;SDS011;27754;45.414;11.084;2023-05-10T10:39:00;4.47;;;2.97;;
42096;SDS011;27754;45.414;11.084;2023-05-10T10:41:35;5.13;;;3.13;;
42096;SDS011;27754;45.414;11.084;2023-05-10T10:52:30;4.60;;;3.00;;
42096;SDS011;27754;45.414;11.084;2023-05-10T10:55:02;3.72;;;2.30;;
42096;SDS011;27754;45.414;11.084;2023-05-10T10:57:45;5.35;;;2.58;;
42096;SDS011;27754;45.414;11.084;2023-05-10T11:00:19;6.40;;;2.50;;
42096;SDS011;27754;45.414;11.084;2023-05-10T11:03:07;4.45;;;2.70;;
42096;SDS011;27754;45.414;11.084;2023-05-10T11:05:39;5.10;;;2.42;;
42096;SDS011;27754;45.414;11.084;2023-05-10T11:08:26;4.20;;;2.97;;
42096;SDS011;27754;45.414;11.084;2023-05-10T11:11:04;4.35;;;2.80;;
42096;SDS011;27754;45.414;11.084;2023-05-10T11:13:39;4.57;;;2.97;;
42096;SDS011;27754;45.414;11.084;2023-05-10T11:16:21;4.30;;;3.10;;
42096;SDS011;27754;45.414;11.084;2023-05-10T11:21:30;4.90;;;3.22;;
42096;SDS011;27754;45.414;11.084;2023-05-10T11:23:58;3.88;;;2.80;;
42096;SDS011;27754;45.414;11.084;2023-05-10T11:26:30;4.65;;;2.40;;
42096;SDS011;27754;45.414;11.084;2023-05-10T11:28:59;3.85;;;2.50;;
42096;SDS011;27754;45.414;11.084;2023-05-10T11:31:28;3.60;;;2.50;;
42096;SDS011;27754;45.414;11.084;2023-05-10T11:33:56;5.38;;;2.78;;
42096;SDS011;27754;45.414;11.084;2023-05-10T11:36:26;3.60;;;2.42;;
42096;SDS011;27754;45.414;11.084;2023-05-10T11:38:54;4.47;;;2.78;;
42096;SDS011;27754;45.414;11.084;2023-05-10T11:41:22;2.97;;;2.25;;
42096;SDS011;27754;45.414;11.084;2023-05-10T11:43:51;3.70;;;2.65;;
42096;SDS011;27754;45.414;11.084;2023-05-10T11:46:20;4.85;;;2.92;;
42096;SDS011;27754;45.414;11.084;2023-05-10T11:48:54;6.25;;;3.15;;
42096;SDS011;27754;45.414;11.084;2023-05-10T11:51:32;5.00;;;2.95;;
42096;SDS011;27754;45.414;11.084;2023-05-10T11:54:05;5.63;;;3.20;;
42096;SDS011;27754;45.414;11.084;2023-05-10T11:56:34;3.72;;;2.70;;
42096;SDS011;27754;45.414;11.084;2023-05-10T11:59:03;4.22;;;3.05;;
42096;SDS011;27754;45.414;11.084;2023-05-10T12:01:30;3.80;;;2.88;;
42096;SDS011;27754;45.414;11.084;2023-05-10T12:03:58;5.03;;;2.80;;
42096;SDS011;27754;45.414;11.084;2023-05-10T12:06:27;3.40;;;2.58;;
42096;SDS011;27754;45.414;11.084;2023-05-10T12:09:02;8.75;;;3.33;;
42096;SDS011;27754;45.414;11.084;2023-05-10T12:11:36;3.47;;;2.60;;
42096;SDS011;27754;45.414;11.084;2023-05-10T12:14:09;3.45;;;2.70;;
42096;SDS011;27754;45.414;11.084;2023-05-10T12:16:36;5.75;;;2.88;;
42096;SDS011;27754;45.414;11.084;2023-05-10T12:19:03;4.15;;;3.00;;
42096;SDS011;27754;45.414;11.084;2023-05-10T12:21:32;3.95;;;2.42;;
42096;SDS011;27754;45.414;11.084;2023-05-10T12:24:01;6.43;;;3.65;;
42096;SDS011;27754;45.414;11.084;2023-05-10T12:26:29;5.80;;;3.33;;
42096;SDS011;27754;45.414;11.084;2023-05-10T12:29:15;5.00;;;3.10;;
42096;SDS011;27754;45.414;11.084;2023-05-10T12:31:51;6.15;;;3.40;;
42096;SDS011;27754;45.414;11.084;2023-05-10T12:34:33;4.93;;;2.85;;
42096;SDS011;27754;45.414;11.084;2023-05-10T12:37:04;7.18;;;4.03;;
42096;SDS011;27754;45.414;11.084;2023-05-10T12:39:38;6.15;;;2.97;;
42096;SDS011;27754;45.414;11.084;2023-05-10T12:42:09;6.85;;;3.70;;
42096;SDS011;27754;45.414;11.084;2023-05-10T12:44:36;6.13;;;3.78;;
42096;SDS011;27754;45.414;11.084;2023-05-10T12:47:03;4.90;;;3.15;;
42096;SDS011;27754;45.414;11.084;2023-05-10T12:49:30;6.78;;;3.65;;
42096;SDS011;27754;45.414;11.084;2023-05-10T12:51:57;5.55;;;3.33;;
42096;SDS011;27754;45.414;11.084;2023-05-10T12:54:24;5.50;;;3.50;;
42096;SDS011;27754;45.414;11.084;2023-05-10T12:56:52;4.25;;;3.10;;
42096;SDS011;27754;45.414;11.084;2023-05-10T12:59:18;5.95;;;3.25;;
42096;SDS011;27754;45.414;11.084;2023-05-10T13:01:45;5.10;;;3.15;;
42096;SDS011;27754;45.414;11.084;2023-05-10T13:04:13;5.53;;;3.53;;
42096;SDS011;27754;45.414;11.084;2023-05-10T13:06:39;6.22;;;3.42;;
42096;SDS011;27754;45.414;11.084;2023-05-10T13:09:09;6.00;;;4.30;;
42096;SDS011;27754;45.414;11.084;2023-05-10T13:11:36;3.88;;;3.25;;
42096;SDS011;27754;45.414;11.084;2023-05-10T13:14:03;5.63;;;4.03;;
42096;SDS011;27754;45.414;11.084;2023-05-10T13:16:31;4.07;;;3.13;;
42096;SDS011;27754;45.414;11.084;2023-05-10T13:18:58;6.50;;;3.90;;
42096;SDS011;27754;45.414;11.084;2023-05-10T13:21:25;4.10;;;3.08;;
42096;SDS011;27754;45.414;11.084;2023-05-10T13:23:52;5.80;;;3.70;;
42096;SDS011;27754;45.414;11.084;2023-05-10T13:26:19;4.97;;;3.58;;
42096;SDS011;27754;45.414;11.084;2023-05-10T13:28:46;5.13;;;3.67;;
42096;SDS011;27754;45.414;11.084;2023-05-10T13:31:14;6.53;;;4.50;;
42096;SDS011;27754;45.414;11.084;2023-05-10T13:33:42;6.47;;;4.10;;
42096;SDS011;27754;45.414;11.084;2023-05-10T13:36:08;5.90;;;4.30;;
42096;SDS011;27754;45.414;11.084;2023-05-10T13:38:35;5.45;;;3.85;;
42096;SDS011;27754;45.414;11.084;2023-05-10T13:41:02;5.18;;;3.63;;
42096;SDS011;27754;45.414;11.084;2023-05-10T13:43:29;5.55;;;4.22;;
42096;SDS011;27754;45.414;11.084;2023-05-10T13:45:56;6.72;;;3.65;;
42096;SDS011;27754;45.414;11.084;2023-05-10T13:48:23;4.55;;;3.42;;
42096;SDS011;27754;45.414;11.084;2023-05-10T13:50:50;4.25;;;3.50;;
42096;SDS011;27754;45.414;11.084;2023-05-10T13:53:17;5.03;;;3.47;;
42096;SDS011;27754;45.414;11.084;2023-05-10T13:55:44;4.97;;;3.80;;
42096;SDS011;27754;45.414;11.084;2023-05-10T13:58:11;10.38;;;3.58;;
42096;SDS011;27754;45.414;11.084;2023-05-10T14:00:41;4.82;;;3.50;;
42096;SDS011;27754;45.414;11.084;2023-05-10T14:03:08;6.75;;;3.72;;
42096;SDS011;27754;45.414;11.084;2023-05-10T14:05:37;6.10;;;3.33;;
42096;SDS011;27754;45.414;11.084;2023-05-10T14:08:04;6.07;;;3.50;;
42096;SDS011;27754;45.414;11.084;2023-05-10T14:10:31;5.18;;;3.63;;
42096;SDS011;27754;45.414;11.084;2023-05-10T14:12:58;6.47;;;3.67;;
42096;SDS011;27754;45.414;11.084;2023-05-10T14:15:25;4.95;;;3.05;;
42096;SDS011;27754;45.414;11.084;2023-05-10T14:17:52;3.85;;;3.17;;
42096;SDS011;27754;45.414;11.084;2023-05-10T14:20:19;8.27;;;3.35;;
42096;SDS011;27754;45.414;11.084;2023-05-10T14:22:46;5.78;;;4.07;;
42096;SDS011;27754;45.414;11.084;2023-05-10T14:25:13;5.63;;;3.30;;
42096;SDS011;27754;45.414;11.084;2023-05-10T14:27:41;7.35;;;3.38;;
42096;SDS011;27754;45.414;11.084;2023-05-10T14:30:08;4.40;;;3.15;;
42096;SDS011;27754;45.414;11.084;2023-05-10T14:32:35;4.28;;;3.20;;
42096;SDS011;27754;45.414;11.084;2023-05-10T14:35:03;6.03;;;3.45;;
42096;SDS011;27754;45.414;11.084;2023-05-10T14:37:30;4.53;;;3.92;;
42096;SDS011;27754;45.414;11.084;2023-05-10T14:39:57;4.43;;;3.63;;
42096;SDS011;27754;45.414;11.084;2023-05-10T14:42:24;5.57;;;3.63;;
42096;SDS011;27754;45.414;11.084;2023-05-10T14:44:51;4.82;;;3.78;;
42096;SDS011;27754;45.414;11.084;2023-05-10T14:47:18;5.90;;;4.18;;
42096;SDS011;27754;45.414;11.084;2023-05-10T14:49:44;5.43;;;4.10;;
42096;SDS011;27754;45.414;11.084;2023-05-10T14:52:11;8.23;;;4.25;;
42096;SDS011;27754;45.414;11.084;2023-05-10T14:54:40;7.05;;;4.65;;
42096;SDS011;27754;45.414;11.084;2023-05-10T14:57:07;6.35;;;4.90;;
42096;SDS011;27754;45.414;11.084;2023-05-10T14:59:34;6.45;;;4.95;;
42096;SDS011;27754;45.414;11.084;2023-05-10T15:02:01;7.07;;;5.00;;
42096;SDS011;27754;45.414;11.084;2023-05-10T15:04:29;7.07;;;4.75;;
42096;SDS011;27754;45.414;11.084;2023-05-10T15:06:57;5.68;;;4.55;;
42096;SDS011;27754;45.414;11.084;2023-05-10T15:09:25;6.50;;;4.78;;
42096;SDS011;27754;45.414;11.084;2023-05-10T15:11:54;6.65;;;5.30;;
42096;SDS011;27754;45.414;11.084;2023-05-10T15:14:21;8.18;;;4.97;;
42096;SDS011;27754;45.414;11.084;2023-05-10T15:16:49;5.85;;;4.47;;
42096;SDS011;27754;45.414;11.084;2023-05-10T15:19:16;5.80;;;4.15;;